sensor_id;sensor_type;location;lat;lon;timestamp;temperature;humidity
8132;DHT22;4107;49.212;9.198;2022-09-02T00:01:35;17.30;99.90
8132;DHT22;4107;49.212;9.198;2022-09-02T00:04:24;17.30;99.90
8132;DHT22;4107;49.212;9.198;2022-09-02T00:06:51;17.20;99.90
8132;DHT22;4107;49.212;9.198;2022-09-02T00:09:19;17.20;99.90
8132;DHT22;4107;49.212;9.198;2022-09-02T00:11:48;17.20;99.90
8132;DHT22;4107;49.212;9.198;2022-09-02T00:14:24;17.10;99.90
8132;DHT22;4107;49.212;9.198;2022-09-02T00:16:50;17.10;99.90
8132;DHT22;4107;49.212;9.198;2022-09-02T00:19:23;17.00;99.90
8132;DHT22;4107;49.212;9.198;2022-09-02T00:21:51;16.90;99.90
8132;DHT22;4107;49.212;9.198;2022-09-02T00:24:17;17.00;99.90
8132;DHT22;4107;49.212;9.198;2022-09-02T00:26:43;16.90;99.90
8132;DHT22;4107;49.212;9.198;2022-09-02T00:29:10;16.90;99.90
8132;DHT22;4107;49.212;9.198;2022-09-02T00:31:37;16.90;99.90
8132;DHT22;4107;49.212;9.198;2022-09-02T00:34:04;16.90;99.90
8132;DHT22;4107;49.212;9.198;2022-09-02T00:36:31;16.80;99.90
8132;DHT22;4107;49.212;9.198;2022-09-02T00:38:56;16.70;99.90
8132;DHT22;4107;49.212;9.198;2022-09-02T00:41:24;16.80;99.90
8132;DHT22;4107;49.212;9.198;2022-09-02T00:44:01;16.80;99.90
8132;DHT22;4107;49.212;9.198;2022-09-02T00:46:30;16.80;99.90
8132;DHT22;4107;49.212;9.198;2022-09-02T00:49:15;16.70;99.90
8132;DHT22;4107;49.212;9.198;2022-09-02T00:51:50;16.70;99.90
8132;DHT22;4107;49.212;9.198;2022-09-02T00:54:19;16.70;99.90
8132;DHT22;4107;49.212;9.198;2022-09-02T00:56:45;16.70;99.90
8132;DHT22;4107;49.212;9.198;2022-09-02T00:59:17;16.70;99.90
8132;DHT22;4107;49.212;9.198;2022-09-02T01:01:43;16.60;99.90
8132;DHT22;4107;49.212;9.198;2022-09-02T01:04:09;16.60;99.90
8132;DHT22;4107;49.212;9.198;2022-09-02T01:06:34;16.60;99.90
8132;DHT22;4107;49.212;9.198;2022-09-02T01:09:07;16.60;99.90
8132;DHT22;4107;49.212;9.198;2022-09-02T01:11:47;16.50;99.90
8132;DHT22;4107;49.212;9.198;2022-09-02T01:14:15;16.30;99.90
8132;DHT22;4107;49.212;9.198;2022-09-02T01:16:45;16.30;99.90
8132;DHT22;4107;49.212;9.198;2022-09-02T01:21:49;16.20;99.90
8132;DHT22;4107;49.212;9.198;2022-09-02T01:24:15;16.20;99.90
8132;DHT22;4107;49.212;9.198;2022-09-02T01:26:41;16.20;99.90
8132;DHT22;4107;49.212;9.198;2022-09-02T01:29:07;16.30;99.90
8132;DHT22;4107;49.212;9.198;2022-09-02T01:31:33;16.30;99.90
8132;DHT22;4107;49.212;9.198;2022-09-02T01:33:58;16.20;99.90
8132;DHT22;4107;49.212;9.198;2022-09-02T01:36:24;16.20;99.90
8132;DHT22;4107;49.212;9.198;2022-09-02T01:38:50;16.20;99.90
8132;DHT22;4107;49.212;9.198;2022-09-02T01:41:15;16.20;99.90
8132;DHT22;4107;49.212;9.198;2022-09-02T01:43:41;16.20;99.90
8132;DHT22;4107;49.212;9.198;2022-09-02T01:46:07;16.20;99.90
8132;DHT22;4107;49.212;9.198;2022-09-02T01:48:32;16.10;99.90
8132;DHT22;4107;49.212;9.198;2022-09-02T01:51:01;16.10;99.90
8132;DHT22;4107;49.212;9.198;2022-09-02T01:53:28;16.00;99.90
8132;DHT22;4107;49.212;9.198;2022-09-02T01:55:54;15.90;99.90
8132;DHT22;4107;49.212;9.198;2022-09-02T01:58:20;15.80;99.90
8132;DHT22;4107;49.212;9.198;2022-09-02T02:00:46;15.80;99.90
8132;DHT22;4107;49.212;9.198;2022-09-02T02:03:12;15.70;99.90
8132;DHT22;4107;49.212;9.198;2022-09-02T02:05:37;15.80;99.90
8132;DHT22;4107;49.212;9.198;2022-09-02T02:08:04;15.60;99.90
8132;DHT22;4107;49.212;9.198;2022-09-02T02:10:30;15.60;99.90
8132;DHT22;4107;49.212;9.198;2022-09-02T02:12:56;15.40;99.90
8132;DHT22;4107;49.212;9.198;2022-09-02T02:15:22;15.50;99.90
8132;DHT22;4107;49.212;9.198;2022-09-02T02:17:48;15.40;99.90
8132;DHT22;4107;49.212;9.198;2022-09-02T02:20:15;15.50;99.90
8132;DHT22;4107;49.212;9.198;2022-09-02T02:22:42;15.40;99.90
8132;DHT22;4107;49.212;9.198;2022-09-02T02:25:09;15.40;99.90
8132;DHT22;4107;49.212;9.198;2022-09-02T02:27:35;15.40;99.90
8132;DHT22;4107;49.212;9.198;2022-09-02T02:30:00;15.50;99.90
8132;DHT22;4107;49.212;9.198;2022-09-02T02:32:26;15.50;99.90
8132;DHT22;4107;49.212;9.198;2022-09-02T02:34:52;15.50;99.90
8132;DHT22;4107;49.212;9.198;2022-09-02T02:37:19;15.50;99.90
8132;DHT22;4107;49.212;9.198;2022-09-02T02:39:45;15.30;99.90
8132;DHT22;4107;49.212;9.198;2022-09-02T02:42:11;15.30;99.90
8132;DHT22;4107;49.212;9.198;2022-09-02T02:44:38;15.20;99.90
8132;DHT22;4107;49.212;9.198;2022-09-02T02:47:05;15.30;99.90
8132;DHT22;4107;49.212;9.198;2022-09-02T02:49:39;15.30;99.90
8132;DHT22;4107;49.212;9.198;2022-09-02T02:52:05;15.20;99.90
8132;DHT22;4107;49.212;9.198;2022-09-02T02:54:30;15.10;99.90
8132;DHT22;4107;49.212;9.198;2022-09-02T02:56:56;15.10;99.90
8132;DHT22;4107;49.212;9.198;2022-09-02T02:59:22;15.10;99.90
8132;DHT22;4107;49.212;9.198;2022-09-02T03:01:47;15.10;99.90
8132;DHT22;4107;49.212;9.198;2022-09-02T03:04:13;15.10;99.90
8132;DHT22;4107;49.212;9.198;2022-09-02T03:06:38;15.00;99.90
8132;DHT22;4107;49.212;9.198;2022-09-02T03:09:04;15.00;99.90
8132;DHT22;4107;49.212;9.198;2022-09-02T03:11:33;14.90;99.90
8132;DHT22;4107;49.212;9.198;2022-09-02T03:13:58;14.90;99.90
8132;DHT22;4107;49.212;9.198;2022-09-02T03:16:25;15.00;99.90
8132;DHT22;4107;49.212;9.198;2022-09-02T03:18:54;15.00;99.90
8132;DHT22;4107;49.212;9.198;2022-09-02T03:21:19;15.10;99.90
8132;DHT22;4107;49.212;9.198;2022-09-02T03:23:45;15.00;99.90
8132;DHT22;4107;49.212;9.198;2022-09-02T03:26:14;15.00;99.90
8132;DHT22;4107;49.212;9.198;2022-09-02T03:28:40;14.90;99.90
8132;DHT22;4107;49.212;9.198;2022-09-02T03:31:06;14.90;99.90
8132;DHT22;4107;49.212;9.198;2022-09-02T03:33:32;14.90;99.90
8132;DHT22;4107;49.212;9.198;2022-09-02T03:35:58;14.90;99.90
8132;DHT22;4107;49.212;9.198;2022-09-02T03:38:24;14.90;99.90
8132;DHT22;4107;49.212;9.198;2022-09-02T03:40:50;14.80;99.90
8132;DHT22;4107;49.212;9.198;2022-09-02T03:43:15;14.80;99.90
8132;DHT22;4107;49.212;9.198;2022-09-02T03:45:41;14.70;99.90
8132;DHT22;4107;49.212;9.198;2022-09-02T03:48:07;14.70;99.90
8132;DHT22;4107;49.212;9.198;2022-09-02T03:50:38;14.70;99.90
8132;DHT22;4107;49.212;9.198;2022-09-02T03:53:05;14.70;99.90
8132;DHT22;4107;49.212;9.198;2022-09-02T03:55:31;14.70;99.90
8132;DHT22;4107;49.212;9.198;2022-09-02T03:57:57;14.60;99.90
8132;DHT22;4107;49.212;9.198;2022-09-02T04:00:24;14.60;99.90
8132;DHT22;4107;49.212;9.198;2022-09-02T04:02:53;14.60;99.90
8132;DHT22;4107;49.212;9.198;2022-09-02T04:05:19;14.70;99.90
8132;DHT22;4107;49.212;9.198;2022-09-02T04:07:46;14.70;99.90
8132;DHT22;4107;49.212;9.198;2022-09-02T04:10:13;14.70;99.90
8132;DHT22;4107;49.212;9.198;2022-09-02T04:12:38;14.70;99.90
8132;DHT22;4107;49.212;9.198;2022-09-02T04:15:05;14.60;99.90
8132;DHT22;4107;49.212;9.198;2022-09-02T04:21:18;14.60;99.90
8132;DHT22;4107;49.212;9.198;2022-09-02T04:23:44;14.50;99.90
8132;DHT22;4107;49.212;9.198;2022-09-02T04:26:13;14.50;99.90
8132;DHT22;4107;49.212;9.198;2022-09-02T04:28:39;14.40;99.90
8132;DHT22;4107;49.212;9.198;2022-09-02T04:31:11;14.40;99.90
8132;DHT22;4107;49.212;9.198;2022-09-02T04:33:37;14.40;99.90
8132;DHT22;4107;49.212;9.198;2022-09-02T04:36:05;14.30;99.90
8132;DHT22;4107;49.212;9.198;2022-09-02T04:38:31;14.40;99.90
8132;DHT22;4107;49.212;9.198;2022-09-02T04:40:57;14.40;99.90
8132;DHT22;4107;49.212;9.198;2022-09-02T04:43:23;14.50;99.90
8132;DHT22;4107;49.212;9.198;2022-09-02T04:45:49;14.50;99.90
8132;DHT22;4107;49.212;9.198;2022-09-02T04:48:16;14.50;99.90
8132;DHT22;4107;49.212;9.198;2022-09-02T04:50:43;14.50;99.90
8132;DHT22;4107;49.212;9.198;2022-09-02T04:53:09;14.40;99.90
8132;DHT22;4107;49.212;9.198;2022-09-02T04:55:36;14.50;99.90
8132;DHT22;4107;49.212;9.198;2022-09-02T04:58:02;14.50;99.90
8132;DHT22;4107;49.212;9.198;2022-09-02T05:00:28;14.60;99.90
8132;DHT22;4107;49.212;9.198;2022-09-02T05:02:54;14.70;99.90
8132;DHT22;4107;49.212;9.198;2022-09-02T05:05:20;14.70;99.90
8132;DHT22;4107;49.212;9.198;2022-09-02T05:07:45;14.80;99.90
8132;DHT22;4107;49.212;9.198;2022-09-02T05:10:11;14.80;99.90
8132;DHT22;4107;49.212;9.198;2022-09-02T05:12:39;14.90;99.90
8132;DHT22;4107;49.212;9.198;2022-09-02T05:15:07;14.90;99.90
8132;DHT22;4107;49.212;9.198;2022-09-02T05:17:33;14.80;99.90
8132;DHT22;4107;49.212;9.198;2022-09-02T05:20:00;14.80;99.90
8132;DHT22;4107;49.212;9.198;2022-09-02T05:22:26;14.80;99.90
8132;DHT22;4107;49.212;9.198;2022-09-02T05:24:54;14.80;99.90
8132;DHT22;4107;49.212;9.198;2022-09-02T05:27:20;14.80;99.90
8132;DHT22;4107;49.212;9.198;2022-09-02T05:29:48;14.80;99.90
8132;DHT22;4107;49.212;9.198;2022-09-02T05:32:14;14.80;99.90
8132;DHT22;4107;49.212;9.198;2022-09-02T05:34:39;14.80;99.90
8132;DHT22;4107;49.212;9.198;2022-09-02T05:37:05;14.80;99.90
8132;DHT22;4107;49.212;9.198;2022-09-02T05:39:32;14.90;99.90
8132;DHT22;4107;49.212;9.198;2022-09-02T05:41:57;15.00;99.90
8132;DHT22;4107;49.212;9.198;2022-09-02T05:44:23;15.00;99.90
8132;DHT22;4107;49.212;9.198;2022-09-02T05:46:48;15.10;99.90
8132;DHT22;4107;49.212;9.198;2022-09-02T05:49:14;15.10;99.90
8132;DHT22;4107;49.212;9.198;2022-09-02T05:51:53;15.10;99.90
8132;DHT22;4107;49.212;9.198;2022-09-02T05:54:30;15.10;99.90
8132;DHT22;4107;49.212;9.198;2022-09-02T05:57:02;15.20;99.90
8132;DHT22;4107;49.212;9.198;2022-09-02T05:59:29;15.20;99.90
8132;DHT22;4107;49.212;9.198;2022-09-02T06:01:57;15.20;99.90
8132;DHT22;4107;49.212;9.198;2022-09-02T06:04:23;15.30;99.90
8132;DHT22;4107;49.212;9.198;2022-09-02T06:06:50;15.40;99.90
8132;DHT22;4107;49.212;9.198;2022-09-02T06:09:18;15.50;99.90
8132;DHT22;4107;49.212;9.198;2022-09-02T06:11:45;15.50;99.90
8132;DHT22;4107;49.212;9.198;2022-09-02T06:14:18;15.50;99.90
8132;DHT22;4107;49.212;9.198;2022-09-02T06:16:44;15.60;99.90
8132;DHT22;4107;49.212;9.198;2022-09-02T06:19:10;15.60;99.90
8132;DHT22;4107;49.212;9.198;2022-09-02T06:21:36;15.60;99.90
8132;DHT22;4107;49.212;9.198;2022-09-02T06:24:06;15.60;99.90
8132;DHT22;4107;49.212;9.198;2022-09-02T06:26:32;15.80;99.90
8132;DHT22;4107;49.212;9.198;2022-09-02T06:28:58;16.00;99.90
8132;DHT22;4107;49.212;9.198;2022-09-02T06:31:24;16.10;99.90
8132;DHT22;4107;49.212;9.198;2022-09-02T06:33:54;16.20;99.90
8132;DHT22;4107;49.212;9.198;2022-09-02T06:36:22;16.40;99.90
8132;DHT22;4107;49.212;9.198;2022-09-02T06:38:50;16.60;99.90
8132;DHT22;4107;49.212;9.198;2022-09-02T06:41:19;16.80;99.90
8132;DHT22;4107;49.212;9.198;2022-09-02T06:43:47;17.10;99.90
8132;DHT22;4107;49.212;9.198;2022-09-02T06:46:19;17.50;99.90
8132;DHT22;4107;49.212;9.198;2022-09-02T06:48:44;17.80;99.60
8132;DHT22;4107;49.212;9.198;2022-09-02T06:51:22;18.20;99.20
8132;DHT22;4107;49.212;9.198;2022-09-02T06:53:48;18.50;98.60
8132;DHT22;4107;49.212;9.198;2022-09-02T06:56:14;18.90;98.50
8132;DHT22;4107;49.212;9.198;2022-09-02T06:58:40;19.30;97.70
8132;DHT22;4107;49.212;9.198;2022-09-02T07:01:05;19.50;97.30
8132;DHT22;4107;49.212;9.198;2022-09-02T07:03:32;19.80;96.40
8132;DHT22;4107;49.212;9.198;2022-09-02T07:06:27;19.90;96.50
8132;DHT22;4107;49.212;9.198;2022-09-02T07:08:53;20.20;95.70
8132;DHT22;4107;49.212;9.198;2022-09-02T07:11:20;20.50;95.30
8132;DHT22;4107;49.212;9.198;2022-09-02T07:13:47;20.90;94.40
8132;DHT22;4107;49.212;9.198;2022-09-02T07:16:13;21.30;93.90
8132;DHT22;4107;49.212;9.198;2022-09-02T07:18:39;21.70;93.60
8132;DHT22;4107;49.212;9.198;2022-09-02T07:21:08;22.10;93.00
8132;DHT22;4107;49.212;9.198;2022-09-02T07:23:34;22.90;92.20
8132;DHT22;4107;49.212;9.198;2022-09-02T07:26:00;23.60;91.40
8132;DHT22;4107;49.212;9.198;2022-09-02T07:28:26;24.30;90.80
8132;DHT22;4107;49.212;9.198;2022-09-02T07:30:52;24.90;89.60
8132;DHT22;4107;49.212;9.198;2022-09-02T07:33:20;25.40;87.10
8132;DHT22;4107;49.212;9.198;2022-09-02T07:43:08;26.80;80.60
8132;DHT22;4107;49.212;9.198;2022-09-02T07:45:35;26.90;81.10
8132;DHT22;4107;49.212;9.198;2022-09-02T07:48:02;25.10;90.10
8132;DHT22;4107;49.212;9.198;2022-09-02T07:50:31;27.30;86.30
8132;DHT22;4107;49.212;9.198;2022-09-02T07:52:57;28.00;76.70
8132;DHT22;4107;49.212;9.198;2022-09-02T07:55:23;28.30;76.20
8132;DHT22;4107;49.212;9.198;2022-09-02T07:57:50;28.30;74.20
8132;DHT22;4107;49.212;9.198;2022-09-02T08:00:17;28.30;73.90
8132;DHT22;4107;49.212;9.198;2022-09-02T08:02:44;28.10;73.30
8132;DHT22;4107;49.212;9.198;2022-09-02T08:05:10;27.80;73.50
8132;DHT22;4107;49.212;9.198;2022-09-02T08:07:37;27.60;73.50
8132;DHT22;4107;49.212;9.198;2022-09-02T08:10:03;27.90;73.90
8132;DHT22;4107;49.212;9.198;2022-09-02T08:12:29;28.30;73.30
8132;DHT22;4107;49.212;9.198;2022-09-02T08:14:55;28.50;72.40
8132;DHT22;4107;49.212;9.198;2022-09-02T08:19:48;28.80;70.00
8132;DHT22;4107;49.212;9.198;2022-09-02T08:22:14;28.70;69.60
8132;DHT22;4107;49.212;9.198;2022-09-02T08:24:39;28.50;68.90
8132;DHT22;4107;49.212;9.198;2022-09-02T08:27:05;28.30;69.60
8132;DHT22;4107;49.212;9.198;2022-09-02T08:29:31;28.30;69.30
8132;DHT22;4107;49.212;9.198;2022-09-02T08:31:56;28.30;69.10
8132;DHT22;4107;49.212;9.198;2022-09-02T08:34:22;28.60;67.90
8132;DHT22;4107;49.212;9.198;2022-09-02T08:36:48;29.20;66.70
8132;DHT22;4107;49.212;9.198;2022-09-02T08:39:13;29.30;66.90
8132;DHT22;4107;49.212;9.198;2022-09-02T08:41:52;29.50;65.90
8132;DHT22;4107;49.212;9.198;2022-09-02T08:44:21;29.40;65.70
8132;DHT22;4107;49.212;9.198;2022-09-02T08:46:50;29.70;64.70
8132;DHT22;4107;49.212;9.198;2022-09-02T08:49:34;29.60;64.50
8132;DHT22;4107;49.212;9.198;2022-09-02T08:52:03;29.60;63.70
8132;DHT22;4107;49.212;9.198;2022-09-02T08:54:40;29.30;63.30
8132;DHT22;4107;49.212;9.198;2022-09-02T08:57:08;29.20;63.30
8132;DHT22;4107;49.212;9.198;2022-09-02T08:59:35;29.20;63.00
8132;DHT22;4107;49.212;9.198;2022-09-02T09:50:33;31.80;91.40
8132;DHT22;4107;49.212;9.198;2022-09-02T09:53:18;31.80;76.70
8132;DHT22;4107;49.212;9.198;2022-09-02T09:55:55;31.80;73.80
8132;DHT22;4107;49.212;9.198;2022-09-02T09:58:23;32.00;71.60
8132;DHT22;4107;49.212;9.198;2022-09-02T10:00:51;31.40;68.00
8132;DHT22;4107;49.212;9.198;2022-09-02T10:03:22;31.30;67.10
8132;DHT22;4107;49.212;9.198;2022-09-02T10:05:53;31.20;66.50
8132;DHT22;4107;49.212;9.198;2022-09-02T10:08:23;31.30;66.30
8132;DHT22;4107;49.212;9.198;2022-09-02T10:11:00;31.30;68.70
8132;DHT22;4107;49.212;9.198;2022-09-02T10:13:31;30.20;64.40
8132;DHT22;4107;49.212;9.198;2022-09-02T10:19:05;28.10;54.60
8132;DHT22;4107;49.212;9.198;2022-09-02T10:24:52;26.40;55.90
8132;DHT22;4107;49.212;9.198;2022-09-02T10:30:06;25.60;58.30
8132;DHT22;4107;49.212;9.198;2022-09-02T10:35:42;25.40;56.80
8132;DHT22;4107;49.212;9.198;2022-09-02T10:38:14;25.20;57.70
8132;DHT22;4107;49.212;9.198;2022-09-02T10:40:50;23.50;69.30
8132;DHT22;4107;49.212;9.198;2022-09-02T10:43:28;24.90;55.00
8132;DHT22;4107;49.212;9.198;2022-09-02T10:45:59;25.00;55.10
8132;DHT22;4107;49.212;9.198;2022-09-02T10:57:10;25.50;56.80
8132;DHT22;4107;49.212;9.198;2022-09-02T11:00:04;25.60;55.20
8132;DHT22;4107;49.212;9.198;2022-09-02T11:02:41;25.50;55.00
8132;DHT22;4107;49.212;9.198;2022-09-02T11:05:27;25.40;56.80
8132;DHT22;4107;49.212;9.198;2022-09-02T11:07:59;25.30;56.10
8132;DHT22;4107;49.212;9.198;2022-09-02T11:10:35;25.10;56.90
8132;DHT22;4107;49.212;9.198;2022-09-02T11:13:08;25.10;57.30
8132;DHT22;4107;49.212;9.198;2022-09-02T11:16:10;25.30;56.40
8132;DHT22;4107;49.212;9.198;2022-09-02T11:18:54;25.30;56.10
8132;DHT22;4107;49.212;9.198;2022-09-02T11:21:56;25.30;55.60
8132;DHT22;4107;49.212;9.198;2022-09-02T11:30:01;25.20;55.60
8132;DHT22;4107;49.212;9.198;2022-09-02T11:32:36;25.10;55.30
8132;DHT22;4107;49.212;9.198;2022-09-02T11:35:07;25.00;56.00
8132;DHT22;4107;49.212;9.198;2022-09-02T11:37:55;25.10;56.20
8132;DHT22;4107;49.212;9.198;2022-09-02T11:40:38;24.90;55.00
8132;DHT22;4107;49.212;9.198;2022-09-02T11:49:28;24.80;55.20
8132;DHT22;4107;49.212;9.198;2022-09-02T11:52:07;25.10;55.80
8132;DHT22;4107;49.212;9.198;2022-09-02T11:54:44;25.40;55.20
8132;DHT22;4107;49.212;9.198;2022-09-02T11:57:19;25.60;54.60
8132;DHT22;4107;49.212;9.198;2022-09-02T12:08:01;25.50;55.20
8132;DHT22;4107;49.212;9.198;2022-09-02T12:15:33;25.30;55.50
8132;DHT22;4107;49.212;9.198;2022-09-02T12:26:24;25.50;54.80
8132;DHT22;4107;49.212;9.198;2022-09-02T12:31:48;25.80;54.80
8132;DHT22;4107;49.212;9.198;2022-09-02T12:37:01;25.80;53.60
8132;DHT22;4107;49.212;9.198;2022-09-02T12:42:12;25.60;53.50
8132;DHT22;4107;49.212;9.198;2022-09-02T12:45:22;25.70;53.30
8132;DHT22;4107;49.212;9.198;2022-09-02T12:48:17;25.70;52.10
8132;DHT22;4107;49.212;9.198;2022-09-02T12:50:55;25.70;53.10
8132;DHT22;4107;49.212;9.198;2022-09-02T12:53:52;25.90;52.60
8132;DHT22;4107;49.212;9.198;2022-09-02T12:56:21;25.80;52.50
8132;DHT22;4107;49.212;9.198;2022-09-02T12:58:50;25.80;53.60
8132;DHT22;4107;49.212;9.198;2022-09-02T13:01:52;25.80;53.70
8132;DHT22;4107;49.212;9.198;2022-09-02T13:04:30;25.70;53.60
8132;DHT22;4107;49.212;9.198;2022-09-02T13:18:49;25.70;53.40
8132;DHT22;4107;49.212;9.198;2022-09-02T13:27:14;25.90;53.20
8132;DHT22;4107;49.212;9.198;2022-09-02T13:30:16;25.90;52.80
8132;DHT22;4107;49.212;9.198;2022-09-02T13:32:43;25.80;52.80
8132;DHT22;4107;49.212;9.198;2022-09-02T13:35:36;25.80;53.20
8132;DHT22;4107;49.212;9.198;2022-09-02T13:38:02;25.90;54.00
8132;DHT22;4107;49.212;9.198;2022-09-02T13:40:32;25.90;53.10
8132;DHT22;4107;49.212;9.198;2022-09-02T13:43:01;25.80;53.30
8132;DHT22;4107;49.212;9.198;2022-09-02T13:45:43;25.80;53.50
8132;DHT22;4107;49.212;9.198;2022-09-02T13:50:47;25.70;53.70
8132;DHT22;4107;49.212;9.198;2022-09-02T13:53:37;25.90;54.10
8132;DHT22;4107;49.212;9.198;2022-09-02T13:56:07;26.00;53.70
8132;DHT22;4107;49.212;9.198;2022-09-02T13:58:36;26.20;53.90
8132;DHT22;4107;49.212;9.198;2022-09-02T14:01:34;26.20;52.90
8132;DHT22;4107;49.212;9.198;2022-09-02T14:04:10;26.20;52.70
8132;DHT22;4107;49.212;9.198;2022-09-02T14:06:39;26.10;52.70
8132;DHT22;4107;49.212;9.198;2022-09-02T14:09:25;26.10;52.80
8132;DHT22;4107;49.212;9.198;2022-09-02T14:11:54;26.10;52.70
8132;DHT22;4107;49.212;9.198;2022-09-02T14:14:23;26.20;52.70
8132;DHT22;4107;49.212;9.198;2022-09-02T14:16:49;26.20;52.90
8132;DHT22;4107;49.212;9.198;2022-09-02T14:19:30;26.30;52.50
8132;DHT22;4107;49.212;9.198;2022-09-02T14:21:56;26.30;52.60
8132;DHT22;4107;49.212;9.198;2022-09-02T14:24:26;26.40;52.50
8132;DHT22;4107;49.212;9.198;2022-09-02T14:26:54;26.40;52.80
8132;DHT22;4107;49.212;9.198;2022-09-02T14:29:46;26.40;52.80
8132;DHT22;4107;49.212;9.198;2022-09-02T14:32:23;26.40;52.10
8132;DHT22;4107;49.212;9.198;2022-09-02T14:35:18;26.40;52.50
8132;DHT22;4107;49.212;9.198;2022-09-02T14:37:50;26.40;52.00
8132;DHT22;4107;49.212;9.198;2022-09-02T14:40:29;26.20;52.30
8132;DHT22;4107;49.212;9.198;2022-09-02T14:43:14;26.20;52.40
8132;DHT22;4107;49.212;9.198;2022-09-02T14:45:46;26.20;52.60
8132;DHT22;4107;49.212;9.198;2022-09-02T14:48:24;26.20;51.70
8132;DHT22;4107;49.212;9.198;2022-09-02T14:51:05;26.10;51.90
8132;DHT22;4107;49.212;9.198;2022-09-02T14:53:32;26.10;51.90
8132;DHT22;4107;49.212;9.198;2022-09-02T14:55:59;26.00;52.10
8132;DHT22;4107;49.212;9.198;2022-09-02T14:58:26;26.00;52.30
8132;DHT22;4107;49.212;9.198;2022-09-02T15:01:10;26.00;52.40
8132;DHT22;4107;49.212;9.198;2022-09-02T15:03:37;26.10;53.10
8132;DHT22;4107;49.212;9.198;2022-09-02T15:06:03;26.10;52.40
8132;DHT22;4107;49.212;9.198;2022-09-02T15:08:28;26.10;52.40
8132;DHT22;4107;49.212;9.198;2022-09-02T15:10:58;26.10;51.90
8132;DHT22;4107;49.212;9.198;2022-09-02T15:13:35;26.20;52.10
8132;DHT22;4107;49.212;9.198;2022-09-02T15:16:02;26.20;52.30
8132;DHT22;4107;49.212;9.198;2022-09-02T15:18:27;26.20;52.40
8132;DHT22;4107;49.212;9.198;2022-09-02T15:20:53;26.10;52.50
8132;DHT22;4107;49.212;9.198;2022-09-02T15:23:18;26.10;52.80
8132;DHT22;4107;49.212;9.198;2022-09-02T15:26:09;26.00;52.40
8132;DHT22;4107;49.212;9.198;2022-09-02T15:28:35;25.90;52.10
8132;DHT22;4107;49.212;9.198;2022-09-02T15:31:02;25.90;52.30
8132;DHT22;4107;49.212;9.198;2022-09-02T15:33:28;26.00;52.50
8132;DHT22;4107;49.212;9.198;2022-09-02T15:36:11;26.00;52.10
8132;DHT22;4107;49.212;9.198;2022-09-02T15:38:38;26.00;52.40
8132;DHT22;4107;49.212;9.198;2022-09-02T15:41:18;26.00;52.20
8132;DHT22;4107;49.212;9.198;2022-09-02T15:43:45;26.00;52.20
8132;DHT22;4107;49.212;9.198;2022-09-02T15:48:45;25.90;51.80
8132;DHT22;4107;49.212;9.198;2022-09-02T15:51:12;25.80;51.70
8132;DHT22;4107;49.212;9.198;2022-09-02T15:53:38;25.70;51.80
8132;DHT22;4107;49.212;9.198;2022-09-02T15:56:04;25.70;52.10
8132;DHT22;4107;49.212;9.198;2022-09-02T15:58:38;25.70;52.30
8132;DHT22;4107;49.212;9.198;2022-09-02T16:01:04;25.70;52.00
8132;DHT22;4107;49.212;9.198;2022-09-02T16:03:30;25.70;52.40
8132;DHT22;4107;49.212;9.198;2022-09-02T16:06:06;25.70;52.30
8132;DHT22;4107;49.212;9.198;2022-09-02T16:08:35;25.60;52.00
8132;DHT22;4107;49.212;9.198;2022-09-02T16:11:07;25.50;51.60
8132;DHT22;4107;49.212;9.198;2022-09-02T16:13:38;25.40;51.70
8132;DHT22;4107;49.212;9.198;2022-09-02T16:16:06;25.30;51.80
8132;DHT22;4107;49.212;9.198;2022-09-02T16:18:34;25.30;52.00
8132;DHT22;4107;49.212;9.198;2022-09-02T16:21:00;25.30;52.00
8132;DHT22;4107;49.212;9.198;2022-09-02T16:23:27;25.30;51.90
8132;DHT22;4107;49.212;9.198;2022-09-02T16:26:23;25.30;52.20
8132;DHT22;4107;49.212;9.198;2022-09-02T16:28:51;25.20;51.90
8132;DHT22;4107;49.212;9.198;2022-09-02T16:31:18;25.20;52.20
8132;DHT22;4107;49.212;9.198;2022-09-02T16:33:58;25.20;52.20
8132;DHT22;4107;49.212;9.198;2022-09-02T16:36:25;25.10;52.40
8132;DHT22;4107;49.212;9.198;2022-09-02T16:38:51;25.10;52.30
8132;DHT22;4107;49.212;9.198;2022-09-02T16:41:25;25.00;52.70
8132;DHT22;4107;49.212;9.198;2022-09-02T16:43:52;25.00;52.50
8132;DHT22;4107;49.212;9.198;2022-09-02T16:46:18;25.00;52.60
8132;DHT22;4107;49.212;9.198;2022-09-02T16:48:44;24.90;52.60
8132;DHT22;4107;49.212;9.198;2022-09-02T16:51:10;24.90;52.30
8132;DHT22;4107;49.212;9.198;2022-09-02T16:53:35;24.80;51.90
8132;DHT22;4107;49.212;9.198;2022-09-02T16:56:02;24.70;52.10
8132;DHT22;4107;49.212;9.198;2022-09-02T16:58:29;24.70;52.80
8132;DHT22;4107;49.212;9.198;2022-09-02T17:00:56;24.60;52.90
8132;DHT22;4107;49.212;9.198;2022-09-02T17:03:22;24.60;53.40
8132;DHT22;4107;49.212;9.198;2022-09-02T17:05:47;24.50;53.50
8132;DHT22;4107;49.212;9.198;2022-09-02T17:08:14;24.40;53.60
8132;DHT22;4107;49.212;9.198;2022-09-02T17:10:40;24.30;53.60
8132;DHT22;4107;49.212;9.198;2022-09-02T17:13:06;24.30;54.00
8132;DHT22;4107;49.212;9.198;2022-09-02T17:15:34;24.20;54.10
8132;DHT22;4107;49.212;9.198;2022-09-02T17:18:00;24.60;54.80
8132;DHT22;4107;49.212;9.198;2022-09-02T17:20:26;24.10;55.00
8132;DHT22;4107;49.212;9.198;2022-09-02T17:22:52;24.20;78.90
8132;DHT22;4107;49.212;9.198;2022-09-02T17:25:17;24.00;81.50
8132;DHT22;4107;49.212;9.198;2022-09-02T17:27:43;24.00;75.80
8132;DHT22;4107;49.212;9.198;2022-09-02T17:30:13;24.00;55.20
8132;DHT22;4107;49.212;9.198;2022-09-02T17:32:40;23.90;55.30
8132;DHT22;4107;49.212;9.198;2022-09-02T17:35:07;23.80;55.40
8132;DHT22;4107;49.212;9.198;2022-09-02T17:37:34;23.70;57.10
8132;DHT22;4107;49.212;9.198;2022-09-02T17:40:03;23.70;55.30
8132;DHT22;4107;49.212;9.198;2022-09-02T17:42:30;23.70;55.70
8132;DHT22;4107;49.212;9.198;2022-09-02T17:44:56;23.60;55.70
8132;DHT22;4107;49.212;9.198;2022-09-02T17:47:22;23.60;55.90
8132;DHT22;4107;49.212;9.198;2022-09-02T17:49:48;23.50;56.00
8132;DHT22;4107;49.212;9.198;2022-09-02T17:52:21;23.50;56.00
8132;DHT22;4107;49.212;9.198;2022-09-02T17:54:50;23.40;56.10
8132;DHT22;4107;49.212;9.198;2022-09-02T18:02:56;23.10;56.50
8132;DHT22;4107;49.212;9.198;2022-09-02T18:05:30;23.10;56.80
8132;DHT22;4107;49.212;9.198;2022-09-02T18:08:37;23.00;56.80
8132;DHT22;4107;49.212;9.198;2022-09-02T18:11:04;22.90;57.00
8132;DHT22;4107;49.212;9.198;2022-09-02T18:13:55;22.80;57.10
8132;DHT22;4107;49.212;9.198;2022-09-02T18:19:29;22.70;57.30
8132;DHT22;4107;49.212;9.198;2022-09-02T18:22:21;22.60;57.40
8132;DHT22;4107;49.212;9.198;2022-09-02T18:25:02;22.60;57.60
8132;DHT22;4107;49.212;9.198;2022-09-02T18:33:39;22.40;57.80
8132;DHT22;4107;49.212;9.198;2022-09-02T18:36:36;22.30;58.10
8132;DHT22;4107;49.212;9.198;2022-09-02T18:42:18;22.30;58.60
8132;DHT22;4107;49.212;9.198;2022-09-02T18:47:26;22.10;59.10
8132;DHT22;4107;49.212;9.198;2022-09-02T18:49:54;22.10;59.70
8132;DHT22;4107;49.212;9.198;2022-09-02T18:52:24;22.00;60.30
8132;DHT22;4107;49.212;9.198;2022-09-02T18:55:08;22.00;60.10
8132;DHT22;4107;49.212;9.198;2022-09-02T18:57:56;21.90;60.10
8132;DHT22;4107;49.212;9.198;2022-09-02T19:00:24;21.80;60.50
8132;DHT22;4107;49.212;9.198;2022-09-02T19:02:58;21.70;60.60
8132;DHT22;4107;49.212;9.198;2022-09-02T19:05:31;21.60;60.70
8132;DHT22;4107;49.212;9.198;2022-09-02T19:08:10;21.60;61.00
8132;DHT22;4107;49.212;9.198;2022-09-02T19:11:02;21.50;61.20
8132;DHT22;4107;49.212;9.198;2022-09-02T19:13:29;21.50;61.60